sensor_id;sensor_type;location;lat;lon;timestamp;P1;durP1;ratioP1;P2;durP2;ratioP2
9860;SDS011;4969;52.304;4.968;2023-03-29T00:00:36;21.02;;;17.27;;
9860;SDS011;4969;52.304;4.968;2023-03-29T00:03:02;21.92;;;18.67;;
9860;SDS011;4969;52.304;4.968;2023-03-29T00:05:29;10.73;;;9.63;;
9860;SDS011;4969;52.304;4.968;2023-03-29T00:07:58;18.38;;;16.08;;
9860;SDS011;4969;52.304;4.968;2023-03-29T00:10:25;24.52;;;18.45;;
9860;SDS011;4969;52.304;4.968;2023-03-29T00:12:53;17.02;;;15.27;;
9860;SDS011;4969;52.304;4.968;2023-03-29T00:15:21;17.92;;;16.00;;
9860;SDS011;4969;52.304;4.968;2023-03-29T00:17:48;21.73;;;19.40;;
9860;SDS011;4969;52.304;4.968;2023-03-29T00:20:14;18.05;;;16.08;;
9860;SDS011;4969;52.304;4.968;2023-03-29T00:22:41;13.30;;;11.90;;
9860;SDS011;4969;52.304;4.968;2023-03-29T00:25:11;25.35;;;19.45;;
9860;SDS011;4969;52.304;4.968;2023-03-29T00:27:38;19.85;;;17.42;;
9860;SDS011;4969;52.304;4.968;2023-03-29T00:30:06;17.73;;;15.23;;
9860;SDS011;4969;52.304;4.968;2023-03-29T00:32:35;17.45;;;15.65;;
9860;SDS011;4969;52.304;4.968;2023-03-29T00:35:02;18.33;;;16.38;;
9860;SDS011;4969;52.304;4.968;2023-03-29T00:37:30;12.45;;;11.23;;
9860;SDS011;4969;52.304;4.968;2023-03-29T00:39:56;20.00;;;17.90;;
9860;SDS011;4969;52.304;4.968;2023-03-29T00:42:23;7.90;;;7.10;;
9860;SDS011;4969;52.304;4.968;2023-03-29T00:44:52;17.92;;;16.00;;
9860;SDS011;4969;52.304;4.968;2023-03-29T00:47:23;19.48;;;15.80;;
9860;SDS011;4969;52.304;4.968;2023-03-29T00:49:54;17.23;;;13.85;;
9860;SDS011;4969;52.304;4.968;2023-03-29T00:52:25;19.27;;;17.05;;
9860;SDS011;4969;52.304;4.968;2023-03-29T00:54:54;17.23;;;13.50;;
9860;SDS011;4969;52.304;4.968;2023-03-29T00:57:24;16.33;;;14.60;;
9860;SDS011;4969;52.304;4.968;2023-03-29T00:59:54;15.55;;;13.98;;
9860;SDS011;4969;52.304;4.968;2023-03-29T01:02:22;12.40;;;10.90;;
9860;SDS011;4969;52.304;4.968;2023-03-29T01:04:55;12.00;;;10.80;;
9860;SDS011;4969;52.304;4.968;2023-03-29T01:07:29;16.35;;;13.10;;
9860;SDS011;4969;52.304;4.968;2023-03-29T01:10:03;17.13;;;15.38;;
9860;SDS011;4969;52.304;4.968;2023-03-29T01:12:36;15.20;;;13.25;;
9860;SDS011;4969;52.304;4.968;2023-03-29T01:15:07;11.10;;;10.00;;
9860;SDS011;4969;52.304;4.968;2023-03-29T01:17:35;11.55;;;9.65;;
9860;SDS011;4969;52.304;4.968;2023-03-29T01:20:05;11.02;;;9.85;;
9860;SDS011;4969;52.304;4.968;2023-03-29T01:22:40;11.98;;;9.90;;
9860;SDS011;4969;52.304;4.968;2023-03-29T01:25:19;11.13;;;9.93;;
9860;SDS011;4969;52.304;4.968;2023-03-29T01:27:53;8.32;;;7.28;;
9860;SDS011;4969;52.304;4.968;2023-03-29T01:30:24;6.13;;;5.53;;
9860;SDS011;4969;52.304;4.968;2023-03-29T01:32:55;6.15;;;4.68;;
9860;SDS011;4969;52.304;4.968;2023-03-29T01:35:26;12.48;;;11.23;;
9860;SDS011;4969;52.304;4.968;2023-03-29T01:38:00;10.27;;;8.88;;
9860;SDS011;4969;52.304;4.968;2023-03-29T01:40:32;12.77;;;11.45;;
9860;SDS011;4969;52.304;4.968;2023-03-29T01:43:03;11.32;;;10.27;;
9860;SDS011;4969;52.304;4.968;2023-03-29T01:45:37;5.03;;;4.43;;
9860;SDS011;4969;52.304;4.968;2023-03-29T01:48:08;7.65;;;6.70;;
9860;SDS011;4969;52.304;4.968;2023-03-29T01:50:41;9.55;;;8.38;;
9860;SDS011;4969;52.304;4.968;2023-03-29T01:53:10;13.48;;;12.02;;
9860;SDS011;4969;52.304;4.968;2023-03-29T01:55:42;9.98;;;8.93;;
9860;SDS011;4969;52.304;4.968;2023-03-29T01:58:14;8.98;;;8.07;;
9860;SDS011;4969;52.304;4.968;2023-03-29T02:00:43;9.98;;;8.98;;
9860;SDS011;4969;52.304;4.968;2023-03-29T02:03:10;11.23;;;10.05;;
9860;SDS011;4969;52.304;4.968;2023-03-29T02:05:41;10.98;;;9.98;;
9860;SDS011;4969;52.304;4.968;2023-03-29T02:08:10;9.07;;;7.72;;
9860;SDS011;4969;52.304;4.968;2023-03-29T02:10:39;7.95;;;7.18;;
9860;SDS011;4969;52.304;4.968;2023-03-29T02:13:06;4.78;;;3.08;;
9860;SDS011;4969;52.304;4.968;2023-03-29T02:15:34;11.77;;;10.00;;
9860;SDS011;4969;52.304;4.968;2023-03-29T02:18:01;9.38;;;8.40;;
9860;SDS011;4969;52.304;4.968;2023-03-29T02:20:28;11.75;;;10.55;;
9860;SDS011;4969;52.304;4.968;2023-03-29T02:22:57;10.57;;;9.50;;
9860;SDS011;4969;52.304;4.968;2023-03-29T02:25:29;11.10;;;9.75;;
9860;SDS011;4969;52.304;4.968;2023-03-29T02:27:56;8.30;;;7.53;;
9860;SDS011;4969;52.304;4.968;2023-03-29T02:30:23;8.18;;;7.40;;
9860;SDS011;4969;52.304;4.968;2023-03-29T02:32:57;11.73;;;8.75;;
9860;SDS011;4969;52.304;4.968;2023-03-29T02:35:32;10.25;;;9.35;;
9860;SDS011;4969;52.304;4.968;2023-03-29T02:38:01;9.55;;;7.80;;
9860;SDS011;4969;52.304;4.968;2023-03-29T02:40:29;7.07;;;6.38;;
9860;SDS011;4969;52.304;4.968;2023-03-29T02:42:57;10.55;;;9.55;;
9860;SDS011;4969;52.304;4.968;2023-03-29T02:45:26;8.40;;;6.80;;
9860;SDS011;4969;52.304;4.968;2023-03-29T02:47:54;9.13;;;8.23;;
9860;SDS011;4969;52.304;4.968;2023-03-29T02:50:26;10.40;;;9.50;;
9860;SDS011;4969;52.304;4.968;2023-03-29T02:52:58;8.13;;;6.70;;
9860;SDS011;4969;52.304;4.968;2023-03-29T02:55:29;6.57;;;5.45;;
9860;SDS011;4969;52.304;4.968;2023-03-29T02:57:58;9.52;;;8.52;;
9860;SDS011;4969;52.304;4.968;2023-03-29T03:00:27;6.38;;;5.78;;
9860;SDS011;4969;52.304;4.968;2023-03-29T03:02:54;9.80;;;8.88;;
9860;SDS011;4969;52.304;4.968;2023-03-29T03:05:22;6.82;;;6.07;;
9860;SDS011;4969;52.304;4.968;2023-03-29T03:07:48;6.95;;;6.00;;
9860;SDS011;4969;52.304;4.968;2023-03-29T03:10:16;8.43;;;5.47;;
9860;SDS011;4969;52.304;4.968;2023-03-29T03:12:43;15.20;;;6.25;;
9860;SDS011;4969;52.304;4.968;2023-03-29T03:15:09;5.82;;;5.22;;
9860;SDS011;4969;52.304;4.968;2023-03-29T03:17:37;5.43;;;4.35;;
9860;SDS011;4969;52.304;4.968;2023-03-29T03:20:06;7.03;;;4.90;;
9860;SDS011;4969;52.304;4.968;2023-03-29T03:22:38;6.18;;;5.57;;
9860;SDS011;4969;52.304;4.968;2023-03-29T03:25:05;9.65;;;8.70;;
9860;SDS011;4969;52.304;4.968;2023-03-29T03:27:34;6.78;;;5.82;;
9860;SDS011;4969;52.304;4.968;2023-03-29T03:30:01;4.57;;;3.78;;
9860;SDS011;4969;52.304;4.968;2023-03-29T03:32:29;6.72;;;5.72;;
9860;SDS011;4969;52.304;4.968;2023-03-29T03:34:55;6.43;;;5.82;;
9860;SDS011;4969;52.304;4.968;2023-03-29T03:37:22;6.40;;;5.63;;
9860;SDS011;4969;52.304;4.968;2023-03-29T03:39:50;8.93;;;7.85;;
9860;SDS011;4969;52.304;4.968;2023-03-29T03:42:17;6.20;;;5.63;;
9860;SDS011;4969;52.304;4.968;2023-03-29T03:44:44;6.13;;;5.57;;
9860;SDS011;4969;52.304;4.968;2023-03-29T03:47:10;6.00;;;5.40;;
9860;SDS011;4969;52.304;4.968;2023-03-29T03:49:38;5.85;;;4.65;;
9860;SDS011;4969;52.304;4.968;2023-03-29T03:52:05;6.75;;;6.15;;
9860;SDS011;4969;52.304;4.968;2023-03-29T03:54:31;6.30;;;5.70;;
9860;SDS011;4969;52.304;4.968;2023-03-29T03:56:59;7.25;;;6.45;;
9860;SDS011;4969;52.304;4.968;2023-03-29T03:59:26;7.22;;;6.63;;
9860;SDS011;4969;52.304;4.968;2023-03-29T04:01:52;6.05;;;5.45;;
9860;SDS011;4969;52.304;4.968;2023-03-29T04:04:19;9.95;;;7.53;;
9860;SDS011;4969;52.304;4.968;2023-03-29T04:06:47;7.38;;;6.60;;
9860;SDS011;4969;52.304;4.968;2023-03-29T04:09:14;5.20;;;3.67;;
9860;SDS011;4969;52.304;4.968;2023-03-29T04:11:42;6.20;;;5.70;;
9860;SDS011;4969;52.304;4.968;2023-03-29T04:14:10;7.13;;;6.47;;
9860;SDS011;4969;52.304;4.968;2023-03-29T04:16:36;6.80;;;6.10;;
9860;SDS011;4969;52.304;4.968;2023-03-29T04:19:03;7.20;;;6.50;;
9860;SDS011;4969;52.304;4.968;2023-03-29T04:21:29;6.43;;;5.82;;
9860;SDS011;4969;52.304;4.968;2023-03-29T04:23:57;6.65;;;5.68;;
9860;SDS011;4969;52.304;4.968;2023-03-29T04:26:24;7.03;;;6.32;;
9860;SDS011;4969;52.304;4.968;2023-03-29T04:28:51;7.28;;;6.57;;
9860;SDS011;4969;52.304;4.968;2023-03-29T04:31:19;4.53;;;4.07;;
9860;SDS011;4969;52.304;4.968;2023-03-29T04:33:45;3.95;;;3.55;;
9860;SDS011;4969;52.304;4.968;2023-03-29T04:36:12;5.97;;;5.40;;
9860;SDS011;4969;52.304;4.968;2023-03-29T04:38:39;6.72;;;4.53;;
9860;SDS011;4969;52.304;4.968;2023-03-29T04:41:06;6.43;;;3.90;;
9860;SDS011;4969;52.304;4.968;2023-03-29T04:43:34;6.13;;;3.92;;
9860;SDS011;4969;52.304;4.968;2023-03-29T04:46:01;4.10;;;3.80;;
9860;SDS011;4969;52.304;4.968;2023-03-29T04:48:28;4.40;;;4.00;;
9860;SDS011;4969;52.304;4.968;2023-03-29T04:50:56;4.37;;;3.77;;
9860;SDS011;4969;52.304;4.968;2023-03-29T04:53:22;5.97;;;4.40;;
9860;SDS011;4969;52.304;4.968;2023-03-29T04:55:49;5.47;;;4.03;;
9860;SDS011;4969;52.304;4.968;2023-03-29T04:58:16;4.53;;;4.10;;
9860;SDS011;4969;52.304;4.968;2023-03-29T05:00:43;4.40;;;4.00;;
9860;SDS011;4969;52.304;4.968;2023-03-29T05:03:09;4.60;;;3.70;;
9860;SDS011;4969;52.304;4.968;2023-03-29T05:05:40;4.10;;;3.78;;
9860;SDS011;4969;52.304;4.968;2023-03-29T05:08:06;4.43;;;3.70;;
9860;SDS011;4969;52.304;4.968;2023-03-29T05:10:34;5.07;;;3.93;;
9860;SDS011;4969;52.304;4.968;2023-03-29T05:13:01;5.17;;;4.40;;
9860;SDS011;4969;52.304;4.968;2023-03-29T05:15:28;4.70;;;4.10;;
9860;SDS011;4969;52.304;4.968;2023-03-29T05:17:55;5.57;;;3.80;;
9860;SDS011;4969;52.304;4.968;2023-03-29T05:20:22;5.00;;;4.30;;
9860;SDS011;4969;52.304;4.968;2023-03-29T05:22:50;5.63;;;4.40;;
9860;SDS011;4969;52.304;4.968;2023-03-29T05:25:17;6.70;;;4.20;;
9860;SDS011;4969;52.304;4.968;2023-03-29T05:27:44;5.23;;;4.33;;
9860;SDS011;4969;52.304;4.968;2023-03-29T05:30:11;4.63;;;4.23;;
9860;SDS011;4969;52.304;4.968;2023-03-29T05:32:39;5.10;;;4.53;;
9860;SDS011;4969;52.304;4.968;2023-03-29T05:35:06;4.93;;;4.00;;
9860;SDS011;4969;52.304;4.968;2023-03-29T05:37:33;5.27;;;4.10;;
9860;SDS011;4969;52.304;4.968;2023-03-29T05:40:01;5.17;;;4.00;;
9860;SDS011;4969;52.304;4.968;2023-03-29T05:42:34;5.57;;;4.57;;
9860;SDS011;4969;52.304;4.968;2023-03-29T05:45:00;5.07;;;4.07;;
9860;SDS011;4969;52.304;4.968;2023-03-29T05:47:27;4.73;;;4.10;;
9860;SDS011;4969;52.304;4.968;2023-03-29T05:49:54;5.33;;;4.30;;
9860;SDS011;4969;52.304;4.968;2023-03-29T05:52:21;6.40;;;4.30;;
9860;SDS011;4969;52.304;4.968;2023-03-29T05:54:48;5.70;;;4.03;;
9860;SDS011;4969;52.304;4.968;2023-03-29T05:57:16;5.93;;;4.40;;
9860;SDS011;4969;52.304;4.968;2023-03-29T05:59:43;4.73;;;4.33;;
9860;SDS011;4969;52.304;4.968;2023-03-29T06:02:11;7.80;;;4.60;;
9860;SDS011;4969;52.304;4.968;2023-03-29T06:04:39;4.60;;;4.13;;
9860;SDS011;4969;52.304;4.968;2023-03-29T06:07:06;6.90;;;4.50;;
9860;SDS011;4969;52.304;4.968;2023-03-29T06:09:34;5.43;;;4.70;;
9860;SDS011;4969;52.304;4.968;2023-03-29T06:12:00;4.37;;;3.87;;
9860;SDS011;4969;52.304;4.968;2023-03-29T06:14:29;5.77;;;4.47;;
9860;SDS011;4969;52.304;4.968;2023-03-29T06:16:56;5.87;;;4.80;;
9860;SDS011;4969;52.304;4.968;2023-03-29T06:19:23;4.67;;;4.10;;
9860;SDS011;4969;52.304;4.968;2023-03-29T06:21:49;6.87;;;4.50;;
9860;SDS011;4969;52.304;4.968;2023-03-29T06:24:17;6.47;;;4.60;;
9860;SDS011;4969;52.304;4.968;2023-03-29T06:26:44;7.40;;;4.43;;
9860;SDS011;4969;52.304;4.968;2023-03-29T06:29:11;6.90;;;4.50;;
9860;SDS011;4969;52.304;4.968;2023-03-29T06:31:39;6.37;;;5.53;;
9860;SDS011;4969;52.304;4.968;2023-03-29T06:34:06;6.27;;;5.47;;
9860;SDS011;4969;52.304;4.968;2023-03-29T06:36:32;7.47;;;6.50;;
9860;SDS011;4969;52.304;4.968;2023-03-29T06:38:59;7.63;;;6.00;;
9860;SDS011;4969;52.304;4.968;2023-03-29T06:41:27;10.97;;;7.63;;
9860;SDS011;4969;52.304;4.968;2023-03-29T06:43:54;11.83;;;8.63;;
9860;SDS011;4969;52.304;4.968;2023-03-29T06:46:21;12.23;;;8.17;;
9860;SDS011;4969;52.304;4.968;2023-03-29T06:48:49;16.30;;;9.90;;
9860;SDS011;4969;52.304;4.968;2023-03-29T06:51:17;14.23;;;9.50;;
9860;SDS011;4969;52.304;4.968;2023-03-29T06:53:43;14.90;;;10.27;;
9860;SDS011;4969;52.304;4.968;2023-03-29T06:56:10;13.00;;;9.17;;
9860;SDS011;4969;52.304;4.968;2023-03-29T06:58:36;15.07;;;10.97;;
9860;SDS011;4969;52.304;4.968;2023-03-29T07:01:03;15.50;;;10.00;;
9860;SDS011;4969;52.304;4.968;2023-03-29T07:03:30;13.50;;;9.77;;
9860;SDS011;4969;52.304;4.968;2023-03-29T07:06:00;15.60;;;10.07;;
9860;SDS011;4969;52.304;4.968;2023-03-29T07:08:33;15.40;;;10.07;;
9860;SDS011;4969;52.304;4.968;2023-03-29T07:11:04;10.97;;;7.90;;
9860;SDS011;4969;52.304;4.968;2023-03-29T07:13:32;10.77;;;7.07;;
9860;SDS011;4969;52.304;4.968;2023-03-29T07:15:59;7.90;;;6.10;;
9860;SDS011;4969;52.304;4.968;2023-03-29T07:18:25;8.10;;;6.20;;
9860;SDS011;4969;52.304;4.968;2023-03-29T07:20:52;7.03;;;6.00;;
9860;SDS011;4969;52.304;4.968;2023-03-29T07:23:20;7.97;;;6.10;;
9860;SDS011;4969;52.304;4.968;2023-03-29T07:25:46;11.70;;;6.30;;
9860;SDS011;4969;52.304;4.968;2023-03-29T07:28:13;7.67;;;5.80;;
9860;SDS011;4969;52.304;4.968;2023-03-29T07:30:39;9.77;;;6.40;;
9860;SDS011;4969;52.304;4.968;2023-03-29T07:33:06;7.97;;;6.07;;
9860;SDS011;4969;52.304;4.968;2023-03-29T07:35:33;9.43;;;7.10;;
9860;SDS011;4969;52.304;4.968;2023-03-29T07:38:00;11.03;;;7.47;;
9860;SDS011;4969;52.304;4.968;2023-03-29T07:40:28;8.83;;;6.83;;
9860;SDS011;4969;52.304;4.968;2023-03-29T07:42:55;11.07;;;7.40;;
9860;SDS011;4969;52.304;4.968;2023-03-29T07:45:23;10.73;;;8.13;;
9860;SDS011;4969;52.304;4.968;2023-03-29T07:47:53;11.93;;;9.40;;
9860;SDS011;4969;52.304;4.968;2023-03-29T07:50:21;12.47;;;9.20;;
9860;SDS011;4969;52.304;4.968;2023-03-29T07:52:47;14.57;;;9.30;;
9860;SDS011;4969;52.304;4.968;2023-03-29T07:55:15;8.97;;;7.50;;
9860;SDS011;4969;52.304;4.968;2023-03-29T07:57:43;10.07;;;7.33;;
9860;SDS011;4969;52.304;4.968;2023-03-29T08:00:10;9.07;;;6.50;;
9860;SDS011;4969;52.304;4.968;2023-03-29T08:02:40;8.63;;;7.03;;
9860;SDS011;4969;52.304;4.968;2023-03-29T08:05:08;10.73;;;7.20;;
9860;SDS011;4969;52.304;4.968;2023-03-29T08:07:36;8.27;;;6.57;;
9860;SDS011;4969;52.304;4.968;2023-03-29T08:10:04;9.53;;;7.10;;
9860;SDS011;4969;52.304;4.968;2023-03-29T08:12:33;8.40;;;6.50;;
9860;SDS011;4969;52.304;4.968;2023-03-29T08:15:01;8.40;;;6.93;;
9860;SDS011;4969;52.304;4.968;2023-03-29T08:17:29;8.70;;;6.90;;
9860;SDS011;4969;52.304;4.968;2023-03-29T08:19:55;10.87;;;7.77;;
9860;SDS011;4969;52.304;4.968;2023-03-29T08:22:22;7.97;;;7.17;;
9860;SDS011;4969;52.304;4.968;2023-03-29T08:24:49;9.43;;;7.60;;
9860;SDS011;4969;52.304;4.968;2023-03-29T08:27:15;11.53;;;8.30;;
9860;SDS011;4969;52.304;4.968;2023-03-29T08:29:42;10.93;;;7.72;;
9860;SDS011;4969;52.304;4.968;2023-03-29T08:32:10;9.87;;;8.47;;
9860;SDS011;4969;52.304;4.968;2023-03-29T08:34:37;10.17;;;8.50;;
9860;SDS011;4969;52.304;4.968;2023-03-29T08:37:03;12.53;;;9.50;;
9860;SDS011;4969;52.304;4.968;2023-03-29T08:39:30;12.87;;;9.43;;
9860;SDS011;4969;52.304;4.968;2023-03-29T08:42:00;11.67;;;8.90;;
9860;SDS011;4969;52.304;4.968;2023-03-29T08:44:48;14.50;;;10.47;;
9860;SDS011;4969;52.304;4.968;2023-03-29T08:47:27;11.47;;;9.50;;
9860;SDS011;4969;52.304;4.968;2023-03-29T08:49:58;15.73;;;11.57;;
9860;SDS011;4969;52.304;4.968;2023-03-29T08:52:29;21.90;;;13.10;;
9860;SDS011;4969;52.304;4.968;2023-03-29T08:55:00;13.82;;;11.43;;
9860;SDS011;4969;52.304;4.968;2023-03-29T08:57:31;14.60;;;12.60;;
9860;SDS011;4969;52.304;4.968;2023-03-29T09:00:01;12.68;;;10.73;;
9860;SDS011;4969;52.304;4.968;2023-03-29T09:02:32;16.00;;;13.45;;
9860;SDS011;4969;52.304;4.968;2023-03-29T09:05:01;11.55;;;10.05;;
9860;SDS011;4969;52.304;4.968;2023-03-29T09:07:32;10.23;;;8.57;;
9860;SDS011;4969;52.304;4.968;2023-03-29T09:09:59;10.83;;;9.50;;
9860;SDS011;4969;52.304;4.968;2023-03-29T09:12:29;18.13;;;15.40;;
9860;SDS011;4969;52.304;4.968;2023-03-29T09:15:08;17.17;;;14.23;;
9860;SDS011;4969;52.304;4.968;2023-03-29T09:17:44;16.77;;;13.43;;
9860;SDS011;4969;52.304;4.968;2023-03-29T09:20:20;19.35;;;16.17;;
9860;SDS011;4969;52.304;4.968;2023-03-29T09:22:58;17.98;;;14.77;;
9860;SDS011;4969;52.304;4.968;2023-03-29T09:25:38;18.83;;;15.50;;
9860;SDS011;4969;52.304;4.968;2023-03-29T09:28:13;21.08;;;16.77;;
9860;SDS011;4969;52.304;4.968;2023-03-29T09:30:45;21.38;;;16.00;;
9860;SDS011;4969;52.304;4.968;2023-03-29T09:33:20;15.35;;;11.90;;
9860;SDS011;4969;52.304;4.968;2023-03-29T09:35:52;15.80;;;11.18;;
9860;SDS011;4969;52.304;4.968;2023-03-29T09:38:23;14.95;;;11.10;;
9860;SDS011;4969;52.304;4.968;2023-03-29T09:40:50;13.13;;;10.07;;
9860;SDS011;4969;52.304;4.968;2023-03-29T09:43:23;15.15;;;12.80;;
9860;SDS011;4969;52.304;4.968;2023-03-29T09:45:55;14.43;;;11.93;;
9860;SDS011;4969;52.304;4.968;2023-03-29T09:48:28;15.95;;;12.65;;
9860;SDS011;4969;52.304;4.968;2023-03-29T09:50:59;17.30;;;14.20;;
9860;SDS011;4969;52.304;4.968;2023-03-29T09:53:28;19.13;;;16.02;;
9860;SDS011;4969;52.304;4.968;2023-03-29T09:55:56;21.27;;;18.05;;
9860;SDS011;4969;52.304;4.968;2023-03-29T09:58:23;17.92;;;13.80;;
9860;SDS011;4969;52.304;4.968;2023-03-29T10:00:52;23.63;;;19.77;;
9860;SDS011;4969;52.304;4.968;2023-03-29T10:03:22;23.85;;;19.05;;
9860;SDS011;4969;52.304;4.968;2023-03-29T10:05:52;16.80;;;13.20;;
9860;SDS011;4969;52.304;4.968;2023-03-29T10:08:21;19.38;;;15.55;;
9860;SDS011;4969;52.304;4.968;2023-03-29T10:10:52;14.70;;;12.77;;
9860;SDS011;4969;52.304;4.968;2023-03-29T10:13:19;27.73;;;22.73;;
9860;SDS011;4969;52.304;4.968;2023-03-29T10:16:00;26.42;;;21.13;;
9860;SDS011;4969;52.304;4.968;2023-03-29T10:18:29;27.92;;;20.85;;
9860;SDS011;4969;52.304;4.968;2023-03-29T10:20:59;23.77;;;17.35;;
9860;SDS011;4969;52.304;4.968;2023-03-29T10:23:31;22.50;;;18.10;;
9860;SDS011;4969;52.304;4.968;2023-03-29T10:25:59;29.25;;;23.75;;
9860;SDS011;4969;52.304;4.968;2023-03-29T10:28:28;31.10;;;24.20;;
9860;SDS011;4969;52.304;4.968;2023-03-29T10:30:57;28.83;;;24.00;;
9860;SDS011;4969;52.304;4.968;2023-03-29T10:33:26;26.65;;;21.80;;
9860;SDS011;4969;52.304;4.968;2023-03-29T10:35:56;23.65;;;18.92;;
9860;SDS011;4969;52.304;4.968;2023-03-29T10:38:26;24.13;;;19.90;;
9860;SDS011;4969;52.304;4.968;2023-03-29T10:40:54;23.65;;;19.10;;
9860;SDS011;4969;52.304;4.968;2023-03-29T10:43:33;24.50;;;18.83;;
9860;SDS011;4969;52.304;4.968;2023-03-29T10:46:06;25.80;;;21.35;;
9860;SDS011;4969;52.304;4.968;2023-03-29T10:48:35;25.05;;;19.88;;
9860;SDS011;4969;52.304;4.968;2023-03-29T10:51:04;28.05;;;23.13;;
9860;SDS011;4969;52.304;4.968;2023-03-29T10:53:32;27.00;;;22.40;;
9860;SDS011;4969;52.304;4.968;2023-03-29T10:56:04;21.83;;;18.30;;
9860;SDS011;4969;52.304;4.968;2023-03-29T10:58:48;21.55;;;18.80;;
9860;SDS011;4969;52.304;4.968;2023-03-29T11:01:30;24.08;;;21.05;;
9860;SDS011;4969;52.304;4.968;2023-03-29T11:04:06;30.17;;;22.42;;
9860;SDS011;4969;52.304;4.968;2023-03-29T11:06:46;27.05;;;22.55;;
9860;SDS011;4969;52.304;4.968;2023-03-29T11:09:24;16.45;;;14.85;;
9860;SDS011;4969;52.304;4.968;2023-03-29T11:12:06;22.75;;;20.02;;
9860;SDS011;4969;52.304;4.968;2023-03-29T11:14:40;29.48;;;25.38;;
9860;SDS011;4969;52.304;4.968;2023-03-29T11:17:20;24.85;;;21.05;;
9860;SDS011;4969;52.304;4.968;2023-03-29T11:19:59;26.63;;;22.73;;
9860;SDS011;4969;52.304;4.968;2023-03-29T11:22:40;22.60;;;18.92;;
9860;SDS011;4969;52.304;4.968;2023-03-29T11:25:24;26.60;;;19.30;;
9860;SDS011;4969;52.304;4.968;2023-03-29T11:27:58;25.60;;;22.52;;
9860;SDS011;4969;52.304;4.968;2023-03-29T11:30:31;25.80;;;22.08;;
9860;SDS011;4969;52.304;4.968;2023-03-29T11:33:05;21.88;;;17.17;;
9860;SDS011;4969;52.304;4.968;2023-03-29T11:35:46;19.98;;;17.80;;
9860;SDS011;4969;52.304;4.968;2023-03-29T11:38:23;24.10;;;19.65;;
9860;SDS011;4969;52.304;4.968;2023-03-29T11:40:56;22.92;;;19.30;;
9860;SDS011;4969;52.304;4.968;2023-03-29T11:43:28;20.27;;;18.08;;
9860;SDS011;4969;52.304;4.968;2023-03-29T11:45:59;16.98;;;15.18;;
9860;SDS011;4969;52.304;4.968;2023-03-29T11:48:30;27.70;;;22.85;;
9860;SDS011;4969;52.304;4.968;2023-03-29T11:51:00;23.23;;;20.77;;
9860;SDS011;4969;52.304;4.968;2023-03-29T11:53:34;20.73;;;17.73;;
9860;SDS011;4969;52.304;4.968;2023-03-29T11:56:07;19.17;;;17.10;;
9860;SDS011;4969;52.304;4.968;2023-03-29T11:58:39;12.07;;;10.90;;
9860;SDS011;4969;52.304;4.968;2023-03-29T12:01:09;20.83;;;18.42;;
9860;SDS011;4969;52.304;4.968;2023-03-29T12:03:39;18.35;;;15.40;;
9860;SDS011;4969;52.304;4.968;2023-03-29T12:06:13;13.70;;;11.32;;
9860;SDS011;4969;52.304;4.968;2023-03-29T12:08:47;18.17;;;15.52;;
9860;SDS011;4969;52.304;4.968;2023-03-29T12:11:18;13.95;;;12.68;;
9860;SDS011;4969;52.304;4.968;2023-03-29T12:13:52;16.88;;;15.18;;
9860;SDS011;4969;52.304;4.968;2023-03-29T12:16:23;16.30;;;14.70;;
9860;SDS011;4969;52.304;4.968;2023-03-29T12:18:55;14.05;;;12.65;;
9860;SDS011;4969;52.304;4.968;2023-03-29T12:21:25;22.95;;;20.65;;
9860;SDS011;4969;52.304;4.968;2023-03-29T12:23:56;17.13;;;15.38;;
9860;SDS011;4969;52.304;4.968;2023-03-29T12:26:29;20.30;;;18.20;;
9860;SDS011;4969;52.304;4.968;2023-03-29T12:29:07;16.38;;;14.68;;
9860;SDS011;4969;52.304;4.968;2023-03-29T12:31:46;21.88;;;19.42;;
9860;SDS011;4969;52.304;4.968;2023-03-29T12:34:31;17.83;;;16.02;;
9860;SDS011;4969;52.304;4.968;2023-03-29T12:37:21;17.65;;;15.85;;
9860;SDS011;4969;52.304;4.968;2023-03-29T12:40:01;21.85;;;19.58;;
9860;SDS011;4969;52.304;4.968;2023-03-29T12:42:42;17.95;;;16.05;;
9860;SDS011;4969;52.304;4.968;2023-03-29T12:45:12;19.33;;;17.25;;
9860;SDS011;4969;52.304;4.968;2023-03-29T12:47:43;18.75;;;16.83;;
9860;SDS011;4969;52.304;4.968;2023-03-29T12:50:15;19.67;;;17.60;;
9860;SDS011;4969;52.304;4.968;2023-03-29T12:52:48;21.67;;;17.45;;
9860;SDS011;4969;52.304;4.968;2023-03-29T12:55:20;18.63;;;16.23;;
9860;SDS011;4969;52.304;4.968;2023-03-29T12:57:56;19.23;;;16.60;;
9860;SDS011;4969;52.304;4.968;2023-03-29T13:00:29;17.70;;;15.75;;
9860;SDS011;4969;52.304;4.968;2023-03-29T13:02:58;16.92;;;14.77;;
9860;SDS011;4969;52.304;4.968;2023-03-29T13:05:28;10.77;;;9.73;;
9860;SDS011;4969;52.304;4.968;2023-03-29T13:07:56;11.80;;;10.60;;
9860;SDS011;4969;52.304;4.968;2023-03-29T13:10:35;14.52;;;11.60;;
9860;SDS011;4969;52.304;4.968;2023-03-29T13:13:10;18.23;;;16.10;;
9860;SDS011;4969;52.304;4.968;2023-03-29T13:15:42;13.35;;;12.00;;
9860;SDS011;4969;52.304;4.968;2023-03-29T13:18:14;19.42;;;17.42;;
9860;SDS011;4969;52.304;4.968;2023-03-29T13:21:03;16.35;;;13.98;;
9860;SDS011;4969;52.304;4.968;2023-03-29T13:23:40;21.02;;;18.73;;
9860;SDS011;4969;52.304;4.968;2023-03-29T13:26:16;16.55;;;14.00;;
9860;SDS011;4969;52.304;4.968;2023-03-29T13:29:01;16.02;;;14.35;;
9860;SDS011;4969;52.304;4.968;2023-03-29T13:31:44;17.92;;;16.05;;
9860;SDS011;4969;52.304;4.968;2023-03-29T13:34:19;20.50;;;18.35;;
9860;SDS011;4969;52.304;4.968;2023-03-29T13:36:57;17.45;;;15.18;;
9860;SDS011;4969;52.304;4.968;2023-03-29T13:39:30;18.10;;;16.20;;
9860;SDS011;4969;52.304;4.968;2023-03-29T13:42:06;18.05;;;16.23;;
9860;SDS011;4969;52.304;4.968;2023-03-29T13:44:42;15.88;;;14.13;;
9860;SDS011;4969;52.304;4.968;2023-03-29T13:47:14;20.60;;;18.05;;
9860;SDS011;4969;52.304;4.968;2023-03-29T13:49:53;20.27;;;18.15;;
9860;SDS011;4969;52.304;4.968;2023-03-29T13:52:23;21.38;;;18.48;;
9860;SDS011;4969;52.304;4.968;2023-03-29T13:54:52;12.38;;;11.18;;
9860;SDS011;4969;52.304;4.968;2023-03-29T13:57:29;21.88;;;19.08;;
9860;SDS011;4969;52.304;4.968;2023-03-29T13:59:59;15.10;;;13.60;;
9860;SDS011;4969;52.304;4.968;2023-03-29T14:02:36;19.70;;;16.92;;
9860;SDS011;4969;52.304;4.968;2023-03-29T14:05:07;20.20;;;18.15;;
9860;SDS011;4969;52.304;4.968;2023-03-29T14:07:37;16.48;;;14.80;;
9860;SDS011;4969;52.304;4.968;2023-03-29T14:10:06;18.42;;;16.30;;
9860;SDS011;4969;52.304;4.968;2023-03-29T14:12:38;19.67;;;17.55;;
9860;SDS011;4969;52.304;4.968;2023-03-29T14:15:06;13.32;;;11.93;;
9860;SDS011;4969;52.304;4.968;2023-03-29T14:17:34;18.60;;;16.63;;
9860;SDS011;4969;52.304;4.968;2023-03-29T14:20:01;19.17;;;17.15;;
9860;SDS011;4969;52.304;4.968;2023-03-29T14:22:33;14.15;;;12.65;;
9860;SDS011;4969;52.304;4.968;2023-03-29T14:25:01;20.85;;;16.65;;
9860;SDS011;4969;52.304;4.968;2023-03-29T14:27:31;14.23;;;12.63;;
9860;SDS011;4969;52.304;4.968;2023-03-29T14:30:15;20.58;;;16.70;;
9860;SDS011;4969;52.304;4.968;2023-03-29T14:32:44;17.75;;;13.70;;
9860;SDS011;4969;52.304;4.968;2023-03-29T14:35:13;11.20;;;10.10;;
9860;SDS011;4969;52.304;4.968;2023-03-29T14:37:39;15.80;;;13.98;;
9860;SDS011;4969;52.304;4.968;2023-03-29T14:40:11;18.38;;;16.05;;
9860;SDS011;4969;52.304;4.968;2023-03-29T14:42:43;16.33;;;14.55;;
9860;SDS011;4969;52.304;4.968;2023-03-29T14:45:12;14.80;;;11.88;;
9860;SDS011;4969;52.304;4.968;2023-03-29T14:47:41;18.27;;;15.18;;
9860;SDS011;4969;52.304;4.968;2023-03-29T14:50:16;12.98;;;11.55;;
9860;SDS011;4969;52.304;4.968;2023-03-29T14:52:44;13.80;;;11.57;;
9860;SDS011;4969;52.304;4.968;2023-03-29T14:55:12;16.92;;;14.13;;
9860;SDS011;4969;52.304;4.968;2023-03-29T14:57:42;16.88;;;13.30;;
9860;SDS011;4969;52.304;4.968;2023-03-29T15:00:20;16.67;;;14.85;;
9860;SDS011;4969;52.304;4.968;2023-03-29T15:02:55;14.57;;;11.85;;
9860;SDS011;4969;52.304;4.968;2023-03-29T15:05:24;14.35;;;12.90;;
9860;SDS011;4969;52.304;4.968;2023-03-29T15:07:56;16.42;;;14.35;;
9860;SDS011;4969;52.304;4.968;2023-03-29T15:10:22;15.95;;;14.25;;
9860;SDS011;4969;52.304;4.968;2023-03-29T15:12:49;14.63;;;13.15;;
9860;SDS011;4969;52.304;4.968;2023-03-29T15:15:18;16.90;;;14.32;;
9860;SDS011;4969;52.304;4.968;2023-03-29T15:17:45;13.68;;;11.75;;